sensor_id;sensor_type;location;lat;lon;timestamp;P1;durP1;ratioP1;P2;durP2;ratioP2
57087;SDS011;42965;52.846;6.614;2023-03-23T00:01:58;14.88;;;12.75;;
57087;SDS011;42965;52.846;6.614;2023-03-23T00:04:24;16.02;;;13.18;;
57087;SDS011;42965;52.846;6.614;2023-03-23T00:06:54;14.73;;;13.10;;
57087;SDS011;42965;52.846;6.614;2023-03-23T00:09:21;14.27;;;12.75;;
57087;SDS011;42965;52.846;6.614;2023-03-23T00:11:50;16.80;;;11.93;;
57087;SDS011;42965;52.846;6.614;2023-03-23T00:14:18;13.98;;;12.57;;
57087;SDS011;42965;52.846;6.614;2023-03-23T00:16:48;16.48;;;11.77;;
57087;SDS011;42965;52.846;6.614;2023-03-23T00:19:15;14.52;;;11.13;;
57087;SDS011;42965;52.846;6.614;2023-03-23T00:21:44;15.27;;;12.07;;
57087;SDS011;42965;52.846;6.614;2023-03-23T00:24:12;13.55;;;11.02;;
57087;SDS011;42965;52.846;6.614;2023-03-23T00:26:39;17.08;;;10.75;;
57087;SDS011;42965;52.846;6.614;2023-03-23T00:29:12;12.45;;;9.38;;
57087;SDS011;42965;52.846;6.614;2023-03-23T00:31:53;12.70;;;9.82;;
57087;SDS011;42965;52.846;6.614;2023-03-23T00:34:20;12.35;;;10.60;;
57087;SDS011;42965;52.846;6.614;2023-03-23T00:36:53;13.73;;;9.87;;
57087;SDS011;42965;52.846;6.614;2023-03-23T00:39:24;12.40;;;10.85;;
57087;SDS011;42965;52.846;6.614;2023-03-23T00:41:53;13.60;;;10.23;;
57087;SDS011;42965;52.846;6.614;2023-03-23T00:44:26;12.57;;;9.40;;
57087;SDS011;42965;52.846;6.614;2023-03-23T00:46:53;10.65;;;8.23;;
57087;SDS011;42965;52.846;6.614;2023-03-23T00:49:22;13.15;;;9.25;;
57087;SDS011;42965;52.846;6.614;2023-03-23T00:51:52;10.85;;;9.02;;
57087;SDS011;42965;52.846;6.614;2023-03-23T00:54:19;11.82;;;9.25;;
57087;SDS011;42965;52.846;6.614;2023-03-23T00:56:49;12.05;;;8.43;;
57087;SDS011;42965;52.846;6.614;2023-03-23T00:59:16;11.35;;;8.48;;
57087;SDS011;42965;52.846;6.614;2023-03-23T01:01:44;11.95;;;7.72;;
57087;SDS011;42965;52.846;6.614;2023-03-23T01:04:13;10.07;;;7.55;;
57087;SDS011;42965;52.846;6.614;2023-03-23T01:06:41;11.38;;;7.25;;
57087;SDS011;42965;52.846;6.614;2023-03-23T01:09:09;8.88;;;7.03;;
57087;SDS011;42965;52.846;6.614;2023-03-23T01:11:45;8.20;;;5.90;;
57087;SDS011;42965;52.846;6.614;2023-03-23T01:14:13;8.48;;;6.35;;
57087;SDS011;42965;52.846;6.614;2023-03-23T01:16:40;7.88;;;5.72;;
57087;SDS011;42965;52.846;6.614;2023-03-23T01:19:07;8.75;;;5.32;;
57087;SDS011;42965;52.846;6.614;2023-03-23T01:21:33;9.82;;;5.85;;
57087;SDS011;42965;52.846;6.614;2023-03-23T01:23:59;7.50;;;5.63;;
57087;SDS011;42965;52.846;6.614;2023-03-23T01:26:27;7.85;;;5.32;;
57087;SDS011;42965;52.846;6.614;2023-03-23T01:28:54;9.30;;;5.10;;
57087;SDS011;42965;52.846;6.614;2023-03-23T01:31:25;7.72;;;4.55;;
57087;SDS011;42965;52.846;6.614;2023-03-23T01:33:52;6.15;;;4.40;;
57087;SDS011;42965;52.846;6.614;2023-03-23T01:36:23;10.50;;;5.20;;
57087;SDS011;42965;52.846;6.614;2023-03-23T01:39:00;7.97;;;4.88;;
57087;SDS011;42965;52.846;6.614;2023-03-23T01:41:30;7.68;;;4.38;;
57087;SDS011;42965;52.846;6.614;2023-03-23T01:44:04;7.78;;;4.50;;
57087;SDS011;42965;52.846;6.614;2023-03-23T01:47:03;7.13;;;5.05;;
57087;SDS011;42965;52.846;6.614;2023-03-23T01:49:31;7.57;;;5.07;;
57087;SDS011;42965;52.846;6.614;2023-03-23T01:52:03;8.45;;;4.55;;
57087;SDS011;42965;52.846;6.614;2023-03-23T01:54:34;7.93;;;4.45;;
57087;SDS011;42965;52.846;6.614;2023-03-23T01:57:07;9.25;;;5.60;;
57087;SDS011;42965;52.846;6.614;2023-03-23T01:59:40;9.90;;;5.60;;
57087;SDS011;42965;52.846;6.614;2023-03-23T02:02:24;5.93;;;4.60;;
57087;SDS011;42965;52.846;6.614;2023-03-23T02:04:55;10.23;;;5.72;;
57087;SDS011;42965;52.846;6.614;2023-03-23T02:07:26;8.82;;;5.43;;
57087;SDS011;42965;52.846;6.614;2023-03-23T02:09:56;10.75;;;5.53;;
57087;SDS011;42965;52.846;6.614;2023-03-23T02:12:22;6.88;;;4.50;;
57087;SDS011;42965;52.846;6.614;2023-03-23T02:14:51;8.45;;;5.20;;
57087;SDS011;42965;52.846;6.614;2023-03-23T02:17:19;9.90;;;5.50;;
57087;SDS011;42965;52.846;6.614;2023-03-23T02:41:24;6.35;;;4.60;;
57087;SDS011;42965;52.846;6.614;2023-03-23T02:43:55;6.22;;;4.07;;
57087;SDS011;42965;52.846;6.614;2023-03-23T02:46:26;10.13;;;4.60;;
57087;SDS011;42965;52.846;6.614;2023-03-23T02:48:54;8.82;;;4.82;;
57087;SDS011;42965;52.846;6.614;2023-03-23T02:51:22;8.45;;;4.65;;
57087;SDS011;42965;52.846;6.614;2023-03-23T02:53:51;8.75;;;4.45;;
57087;SDS011;42965;52.846;6.614;2023-03-23T02:56:20;7.82;;;4.25;;
57087;SDS011;42965;52.846;6.614;2023-03-23T02:58:49;6.85;;;4.25;;
57087;SDS011;42965;52.846;6.614;2023-03-23T03:04:07;7.28;;;4.90;;
57087;SDS011;42965;52.846;6.614;2023-03-23T03:09:40;9.93;;;4.65;;
57087;SDS011;42965;52.846;6.614;2023-03-23T03:12:25;9.98;;;5.20;;
57087;SDS011;42965;52.846;6.614;2023-03-23T03:15:05;9.57;;;4.80;;
57087;SDS011;42965;52.846;6.614;2023-03-23T03:18:00;9.38;;;5.07;;
57087;SDS011;42965;52.846;6.614;2023-03-23T03:20:33;7.53;;;5.22;;
57087;SDS011;42965;52.846;6.614;2023-03-23T03:23:03;7.47;;;5.32;;
57087;SDS011;42965;52.846;6.614;2023-03-23T03:25:33;10.32;;;6.25;;
57087;SDS011;42965;52.846;6.614;2023-03-23T03:28:01;10.00;;;5.38;;
57087;SDS011;42965;52.846;6.614;2023-03-23T03:30:40;7.60;;;5.38;;
57087;SDS011;42965;52.846;6.614;2023-03-23T03:33:10;8.68;;;5.35;;
57087;SDS011;42965;52.846;6.614;2023-03-23T03:35:38;7.55;;;4.82;;
57087;SDS011;42965;52.846;6.614;2023-03-23T03:38:08;6.07;;;5.32;;
57087;SDS011;42965;52.846;6.614;2023-03-23T03:40:36;7.70;;;5.22;;
57087;SDS011;42965;52.846;6.614;2023-03-23T03:43:02;8.70;;;5.40;;
57087;SDS011;42965;52.846;6.614;2023-03-23T03:45:29;9.65;;;5.47;;
57087;SDS011;42965;52.846;6.614;2023-03-23T03:47:58;6.85;;;5.57;;
57087;SDS011;42965;52.846;6.614;2023-03-23T03:50:26;6.28;;;5.13;;
57087;SDS011;42965;52.846;6.614;2023-03-23T03:52:52;7.75;;;5.93;;
57087;SDS011;42965;52.846;6.614;2023-03-23T03:55:18;6.65;;;5.68;;
57087;SDS011;42965;52.846;6.614;2023-03-23T03:57:47;7.10;;;5.20;;
57087;SDS011;42965;52.846;6.614;2023-03-23T04:00:34;10.93;;;5.47;;
57087;SDS011;42965;52.846;6.614;2023-03-23T04:03:00;7.75;;;5.70;;
57087;SDS011;42965;52.846;6.614;2023-03-23T04:05:42;7.53;;;5.50;;
57087;SDS011;42965;52.846;6.614;2023-03-23T04:08:10;8.63;;;6.03;;
57087;SDS011;42965;52.846;6.614;2023-03-23T04:10:37;7.88;;;5.90;;
57087;SDS011;42965;52.846;6.614;2023-03-23T04:13:04;7.82;;;5.95;;
57087;SDS011;42965;52.846;6.614;2023-03-23T04:15:45;10.27;;;5.95;;
57087;SDS011;42965;52.846;6.614;2023-03-23T04:18:12;9.75;;;6.35;;
57087;SDS011;42965;52.846;6.614;2023-03-23T04:20:41;8.38;;;6.05;;
57087;SDS011;42965;52.846;6.614;2023-03-23T04:23:10;8.85;;;6.70;;
57087;SDS011;42965;52.846;6.614;2023-03-23T04:25:37;10.98;;;6.47;;
57087;SDS011;42965;52.846;6.614;2023-03-23T04:28:05;11.07;;;6.43;;
57087;SDS011;42965;52.846;6.614;2023-03-23T04:30:38;8.25;;;5.68;;
57087;SDS011;42965;52.846;6.614;2023-03-23T04:33:10;9.30;;;6.53;;
57087;SDS011;42965;52.846;6.614;2023-03-23T04:35:45;8.90;;;6.78;;
57087;SDS011;42965;52.846;6.614;2023-03-23T04:38:19;10.27;;;6.65;;
57087;SDS011;42965;52.846;6.614;2023-03-23T04:40:52;7.55;;;5.72;;
57087;SDS011;42965;52.846;6.614;2023-03-23T04:43:44;11.32;;;6.57;;
57087;SDS011;42965;52.846;6.614;2023-03-23T04:46:25;8.05;;;5.75;;
57087;SDS011;42965;52.846;6.614;2023-03-23T04:48:56;12.02;;;6.55;;
57087;SDS011;42965;52.846;6.614;2023-03-23T04:51:30;10.43;;;6.22;;
57087;SDS011;42965;52.846;6.614;2023-03-23T04:54:07;8.52;;;6.32;;
57087;SDS011;42965;52.846;6.614;2023-03-23T04:56:34;10.65;;;6.45;;
57087;SDS011;42965;52.846;6.614;2023-03-23T04:59:07;12.77;;;6.88;;
57087;SDS011;42965;52.846;6.614;2023-03-23T05:01:39;9.50;;;6.13;;
57087;SDS011;42965;52.846;6.614;2023-03-23T05:04:15;11.93;;;6.80;;
57087;SDS011;42965;52.846;6.614;2023-03-23T05:06:46;14.90;;;7.50;;
57087;SDS011;42965;52.846;6.614;2023-03-23T05:09:20;11.32;;;6.78;;
57087;SDS011;42965;52.846;6.614;2023-03-23T05:11:47;9.70;;;7.13;;
57087;SDS011;42965;52.846;6.614;2023-03-23T05:14:14;10.82;;;6.43;;
57087;SDS011;42965;52.846;6.614;2023-03-23T05:16:44;6.82;;;4.28;;
57087;SDS011;42965;52.846;6.614;2023-03-23T05:19:14;8.02;;;4.45;;
57087;SDS011;42965;52.846;6.614;2023-03-23T05:21:41;11.40;;;4.47;;
57087;SDS011;42965;52.846;6.614;2023-03-23T05:24:08;11.50;;;4.20;;
57087;SDS011;42965;52.846;6.614;2023-03-23T05:26:34;6.30;;;3.40;;
57087;SDS011;42965;52.846;6.614;2023-03-23T05:29:11;9.10;;;3.67;;
57087;SDS011;42965;52.846;6.614;2023-03-23T05:31:47;11.52;;;3.83;;
57087;SDS011;42965;52.846;6.614;2023-03-23T05:34:14;9.45;;;3.88;;
57087;SDS011;42965;52.846;6.614;2023-03-23T05:36:53;8.40;;;3.63;;
57087;SDS011;42965;52.846;6.614;2023-03-23T05:39:46;17.05;;;3.50;;
57087;SDS011;42965;52.846;6.614;2023-03-23T05:42:32;16.05;;;4.57;;
57087;SDS011;42965;52.846;6.614;2023-03-23T05:45:07;7.13;;;3.03;;
57087;SDS011;42965;52.846;6.614;2023-03-23T05:47:36;11.38;;;3.38;;
57087;SDS011;42965;52.846;6.614;2023-03-23T05:50:12;8.65;;;3.50;;
57087;SDS011;42965;52.846;6.614;2023-03-23T05:52:39;10.23;;;3.33;;
57087;SDS011;42965;52.846;6.614;2023-03-23T05:55:09;14.68;;;3.78;;
57087;SDS011;42965;52.846;6.614;2023-03-23T05:57:38;14.25;;;3.97;;
57087;SDS011;42965;52.846;6.614;2023-03-23T06:00:12;9.57;;;3.00;;
57087;SDS011;42965;52.846;6.614;2023-03-23T06:02:54;13.80;;;3.35;;
57087;SDS011;42965;52.846;6.614;2023-03-23T06:05:29;9.95;;;2.90;;
57087;SDS011;42965;52.846;6.614;2023-03-23T06:07:57;10.68;;;2.75;;
57087;SDS011;42965;52.846;6.614;2023-03-23T06:10:25;13.05;;;3.22;;
57087;SDS011;42965;52.846;6.614;2023-03-23T06:12:58;7.07;;;2.97;;
57087;SDS011;42965;52.846;6.614;2023-03-23T06:15:45;8.82;;;2.85;;
57087;SDS011;42965;52.846;6.614;2023-03-23T06:18:31;11.77;;;2.67;;
57087;SDS011;42965;52.846;6.614;2023-03-23T06:21:19;7.63;;;2.83;;
57087;SDS011;42965;52.846;6.614;2023-03-23T06:23:52;12.55;;;3.35;;
57087;SDS011;42965;52.846;6.614;2023-03-23T06:26:20;9.95;;;2.97;;
57087;SDS011;42965;52.846;6.614;2023-03-23T06:28:56;7.38;;;2.47;;
57087;SDS011;42965;52.846;6.614;2023-03-23T06:31:24;13.25;;;3.92;;
57087;SDS011;42965;52.846;6.614;2023-03-23T06:33:52;7.72;;;2.95;;
57087;SDS011;42965;52.846;6.614;2023-03-23T06:36:24;10.27;;;3.08;;
57087;SDS011;42965;52.846;6.614;2023-03-23T06:39:12;10.38;;;3.10;;
57087;SDS011;42965;52.846;6.614;2023-03-23T06:42:03;14.40;;;4.33;;
57087;SDS011;42965;52.846;6.614;2023-03-23T06:47:02;11.23;;;3.38;;
57087;SDS011;42965;52.846;6.614;2023-03-23T06:49:33;16.33;;;4.78;;
57087;SDS011;42965;52.846;6.614;2023-03-23T06:52:19;11.15;;;4.07;;
57087;SDS011;42965;52.846;6.614;2023-03-23T06:54:46;13.13;;;3.78;;
57087;SDS011;42965;52.846;6.614;2023-03-23T06:57:13;13.45;;;4.55;;
57087;SDS011;42965;52.846;6.614;2023-03-23T06:59:42;15.10;;;4.20;;
57087;SDS011;42965;52.846;6.614;2023-03-23T07:02:09;18.55;;;4.32;;
57087;SDS011;42965;52.846;6.614;2023-03-23T07:04:38;16.38;;;4.20;;
57087;SDS011;42965;52.846;6.614;2023-03-23T07:07:09;16.92;;;4.45;;
57087;SDS011;42965;52.846;6.614;2023-03-23T07:09:47;17.42;;;4.43;;
57087;SDS011;42965;52.846;6.614;2023-03-23T07:12:18;16.35;;;4.28;;
57087;SDS011;42965;52.846;6.614;2023-03-23T07:14:46;16.02;;;4.22;;
57087;SDS011;42965;52.846;6.614;2023-03-23T07:17:13;21.50;;;4.72;;
57087;SDS011;42965;52.846;6.614;2023-03-23T07:19:50;13.40;;;3.85;;
57087;SDS011;42965;52.846;6.614;2023-03-23T07:22:17;18.65;;;4.85;;
57087;SDS011;42965;52.846;6.614;2023-03-23T07:24:49;14.77;;;5.35;;
57087;SDS011;42965;52.846;6.614;2023-03-23T07:27:22;18.27;;;4.57;;
57087;SDS011;42965;52.846;6.614;2023-03-23T07:29:51;15.60;;;5.07;;
57087;SDS011;42965;52.846;6.614;2023-03-23T07:32:22;22.27;;;5.85;;
57087;SDS011;42965;52.846;6.614;2023-03-23T07:34:50;17.45;;;4.88;;
57087;SDS011;42965;52.846;6.614;2023-03-23T07:37:26;16.60;;;4.63;;
57087;SDS011;42965;52.846;6.614;2023-03-23T07:39:54;13.50;;;4.10;;
57087;SDS011;42965;52.846;6.614;2023-03-23T07:42:21;17.17;;;5.00;;
57087;SDS011;42965;52.846;6.614;2023-03-23T07:44:54;13.00;;;3.47;;
57087;SDS011;42965;52.846;6.614;2023-03-23T07:47:21;41.05;;;26.50;;
57087;SDS011;42965;52.846;6.614;2023-03-23T07:49:48;16.05;;;5.70;;
57087;SDS011;42965;52.846;6.614;2023-03-23T07:52:25;18.70;;;4.28;;
57087;SDS011;42965;52.846;6.614;2023-03-23T07:54:52;19.55;;;4.82;;
57087;SDS011;42965;52.846;6.614;2023-03-23T07:57:38;18.00;;;4.15;;
57087;SDS011;42965;52.846;6.614;2023-03-23T08:00:05;15.43;;;4.28;;
57087;SDS011;42965;52.846;6.614;2023-03-23T08:02:41;17.17;;;4.35;;
57087;SDS011;42965;52.846;6.614;2023-03-23T08:05:31;15.95;;;4.07;;
57087;SDS011;42965;52.846;6.614;2023-03-23T08:08:18;19.55;;;4.30;;
57087;SDS011;42965;52.846;6.614;2023-03-23T08:11:17;13.98;;;4.05;;
57087;SDS011;42965;52.846;6.614;2023-03-23T08:14:22;16.23;;;4.45;;
57087;SDS011;42965;52.846;6.614;2023-03-23T08:17:05;15.77;;;5.40;;
57087;SDS011;42965;52.846;6.614;2023-03-23T08:19:40;14.90;;;4.57;;
57087;SDS011;42965;52.846;6.614;2023-03-23T08:22:35;14.57;;;4.03;;
57087;SDS011;42965;52.846;6.614;2023-03-23T08:25:12;19.60;;;4.82;;
57087;SDS011;42965;52.846;6.614;2023-03-23T08:27:58;16.75;;;4.53;;
57087;SDS011;42965;52.846;6.614;2023-03-23T08:30:57;20.80;;;4.22;;
57087;SDS011;42965;52.846;6.614;2023-03-23T08:33:50;16.55;;;4.32;;
57087;SDS011;42965;52.846;6.614;2023-03-23T08:36:37;17.17;;;4.40;;
57087;SDS011;42965;52.846;6.614;2023-03-23T08:39:15;21.70;;;4.90;;
57087;SDS011;42965;52.846;6.614;2023-03-23T08:42:06;14.70;;;4.20;;
57087;SDS011;42965;52.846;6.614;2023-03-23T08:44:53;16.85;;;4.40;;
57087;SDS011;42965;52.846;6.614;2023-03-23T08:47:38;21.40;;;5.45;;
57087;SDS011;42965;52.846;6.614;2023-03-23T08:50:12;17.95;;;5.30;;
57087;SDS011;42965;52.846;6.614;2023-03-23T08:53:17;17.55;;;5.22;;
57087;SDS011;42965;52.846;6.614;2023-03-23T08:55:47;23.83;;;5.30;;
57087;SDS011;42965;52.846;6.614;2023-03-23T08:58:53;17.25;;;4.35;;
57087;SDS011;42965;52.846;6.614;2023-03-23T09:01:34;16.42;;;4.72;;
57087;SDS011;42965;52.846;6.614;2023-03-23T09:04:40;17.52;;;4.72;;
57087;SDS011;42965;52.846;6.614;2023-03-23T09:07:23;18.92;;;5.30;;
57087;SDS011;42965;52.846;6.614;2023-03-23T09:09:49;19.83;;;5.43;;
57087;SDS011;42965;52.846;6.614;2023-03-23T09:12:15;19.10;;;5.32;;
57087;SDS011;42965;52.846;6.614;2023-03-23T09:14:42;17.00;;;5.22;;
57087;SDS011;42965;52.846;6.614;2023-03-23T09:17:08;18.85;;;4.75;;
57087;SDS011;42965;52.846;6.614;2023-03-23T09:19:37;18.38;;;4.85;;
57087;SDS011;42965;52.846;6.614;2023-03-23T09:22:04;21.45;;;5.00;;
57087;SDS011;42965;52.846;6.614;2023-03-23T09:24:31;15.68;;;4.60;;
57087;SDS011;42965;52.846;6.614;2023-03-23T09:26:57;16.77;;;5.05;;
57087;SDS011;42965;52.846;6.614;2023-03-23T09:29:24;18.27;;;5.70;;
57087;SDS011;42965;52.846;6.614;2023-03-23T09:31:53;19.48;;;5.20;;
57087;SDS011;42965;52.846;6.614;2023-03-23T09:34:22;20.75;;;5.10;;
57087;SDS011;42965;52.846;6.614;2023-03-23T09:36:48;19.80;;;5.13;;
57087;SDS011;42965;52.846;6.614;2023-03-23T09:39:15;18.33;;;5.18;;
57087;SDS011;42965;52.846;6.614;2023-03-23T09:44:47;17.55;;;4.38;;
57087;SDS011;42965;52.846;6.614;2023-03-23T09:49:59;18.73;;;4.38;;
57087;SDS011;42965;52.846;6.614;2023-03-23T09:55:18;17.27;;;4.75;;
57087;SDS011;42965;52.846;6.614;2023-03-23T09:57:57;13.65;;;4.00;;
57087;SDS011;42965;52.846;6.614;2023-03-23T10:00:33;16.52;;;4.68;;
57087;SDS011;42965;52.846;6.614;2023-03-23T10:03:26;18.70;;;4.57;;
57087;SDS011;42965;52.846;6.614;2023-03-23T10:06:15;22.05;;;6.38;;
57087;SDS011;42965;52.846;6.614;2023-03-23T10:08:47;16.35;;;4.20;;
57087;SDS011;42965;52.846;6.614;2023-03-23T10:11:23;19.17;;;4.63;;
57087;SDS011;42965;52.846;6.614;2023-03-23T10:16:43;16.85;;;4.60;;
57087;SDS011;42965;52.846;6.614;2023-03-23T10:19:27;19.52;;;5.75;;
57087;SDS011;42965;52.846;6.614;2023-03-23T10:22:02;15.98;;;4.05;;
57087;SDS011;42965;52.846;6.614;2023-03-23T10:25:15;15.52;;;4.40;;
57087;SDS011;42965;52.846;6.614;2023-03-23T10:27:45;15.43;;;3.95;;
57087;SDS011;42965;52.846;6.614;2023-03-23T10:30:29;14.15;;;3.65;;
57087;SDS011;42965;52.846;6.614;2023-03-23T10:33:08;17.00;;;4.00;;
57087;SDS011;42965;52.846;6.614;2023-03-23T10:35:42;14.10;;;4.03;;
57087;SDS011;42965;52.846;6.614;2023-03-23T10:38:14;13.43;;;3.58;;
57087;SDS011;42965;52.846;6.614;2023-03-23T10:40:55;15.25;;;3.85;;
57087;SDS011;42965;52.846;6.614;2023-03-23T10:43:26;13.65;;;3.40;;
57087;SDS011;42965;52.846;6.614;2023-03-23T10:46:00;17.08;;;3.70;;
57087;SDS011;42965;52.846;6.614;2023-03-23T10:48:37;14.80;;;4.45;;
57087;SDS011;42965;52.846;6.614;2023-03-23T10:51:05;16.63;;;3.60;;
57087;SDS011;42965;52.846;6.614;2023-03-23T10:53:45;9.07;;;2.78;;
57087;SDS011;42965;52.846;6.614;2023-03-23T10:56:22;8.98;;;2.50;;
57087;SDS011;42965;52.846;6.614;2023-03-23T10:58:51;8.63;;;2.78;;
57087;SDS011;42965;52.846;6.614;2023-03-23T11:01:19;10.20;;;2.75;;
57087;SDS011;42965;52.846;6.614;2023-03-23T11:03:57;8.73;;;2.30;;
57087;SDS011;42965;52.846;6.614;2023-03-23T11:06:27;11.15;;;3.05;;
57087;SDS011;42965;52.846;6.614;2023-03-23T11:08:56;9.38;;;2.95;;
57087;SDS011;42965;52.846;6.614;2023-03-23T11:11:28;10.25;;;2.60;;
57087;SDS011;42965;52.846;6.614;2023-03-23T11:14:19;10.93;;;2.95;;
57087;SDS011;42965;52.846;6.614;2023-03-23T11:16:56;8.30;;;2.22;;
57087;SDS011;42965;52.846;6.614;2023-03-23T11:19:30;12.10;;;2.92;;
57087;SDS011;42965;52.846;6.614;2023-03-23T11:22:05;9.88;;;2.65;;
57087;SDS011;42965;52.846;6.614;2023-03-23T11:24:47;16.75;;;3.17;;
57087;SDS011;42965;52.846;6.614;2023-03-23T11:27:17;11.50;;;3.35;;
57087;SDS011;42965;52.846;6.614;2023-03-23T11:29:55;13.13;;;2.85;;
57087;SDS011;42965;52.846;6.614;2023-03-23T11:32:27;10.20;;;3.65;;
57087;SDS011;42965;52.846;6.614;2023-03-23T11:34:59;7.93;;;2.55;;
57087;SDS011;42965;52.846;6.614;2023-03-23T11:37:33;11.40;;;3.17;;
57087;SDS011;42965;52.846;6.614;2023-03-23T11:42:36;10.60;;;3.13;;
57087;SDS011;42965;52.846;6.614;2023-03-23T11:45:21;10.45;;;3.03;;
57087;SDS011;42965;52.846;6.614;2023-03-23T11:53:17;12.07;;;3.75;;
57087;SDS011;42965;52.846;6.614;2023-03-23T11:58:34;10.48;;;2.58;;
57087;SDS011;42965;52.846;6.614;2023-03-23T12:04:13;10.52;;;2.88;;
57087;SDS011;42965;52.846;6.614;2023-03-23T12:07:19;8.95;;;2.60;;
57087;SDS011;42965;52.846;6.614;2023-03-23T12:10:02;11.93;;;3.20;;
57087;SDS011;42965;52.846;6.614;2023-03-23T12:12:56;12.07;;;3.15;;
57087;SDS011;42965;52.846;6.614;2023-03-23T12:15:50;11.25;;;2.67;;
57087;SDS011;42965;52.846;6.614;2023-03-23T12:27:07;14.30;;;4.03;;
57087;SDS011;42965;52.846;6.614;2023-03-23T12:37:41;13.57;;;3.40;;
57087;SDS011;42965;52.846;6.614;2023-03-23T12:43:13;13.88;;;3.88;;
57087;SDS011;42965;52.846;6.614;2023-03-23T12:46:21;13.15;;;3.85;;
57087;SDS011;42965;52.846;6.614;2023-03-23T12:49:05;13.50;;;3.60;;
57087;SDS011;42965;52.846;6.614;2023-03-23T12:51:37;13.15;;;3.72;;
57087;SDS011;42965;52.846;6.614;2023-03-23T13:02:22;11.80;;;3.30;;
57087;SDS011;42965;52.846;6.614;2023-03-23T13:05:10;12.18;;;3.13;;
57087;SDS011;42965;52.846;6.614;2023-03-23T13:07:52;13.32;;;3.33;;
57087;SDS011;42965;52.846;6.614;2023-03-23T13:10:23;8.75;;;2.47;;
57087;SDS011;42965;52.846;6.614;2023-03-23T13:12:56;10.05;;;3.33;;
57087;SDS011;42965;52.846;6.614;2023-03-23T13:15:35;12.80;;;3.00;;
57087;SDS011;42965;52.846;6.614;2023-03-23T13:26:20;14.70;;;3.58;;
57087;SDS011;42965;52.846;6.614;2023-03-23T13:29:01;13.35;;;3.40;;
57087;SDS011;42965;52.846;6.614;2023-03-23T13:31:35;12.32;;;2.97;;
57087;SDS011;42965;52.846;6.614;2023-03-23T13:36:42;7.20;;;2.38;;
57087;SDS011;42965;52.846;6.614;2023-03-23T13:39:18;14.68;;;3.33;;
57087;SDS011;42965;52.846;6.614;2023-03-23T13:49:51;11.35;;;2.65;;
57087;SDS011;42965;52.846;6.614;2023-03-23T13:52:37;9.20;;;2.67;;
57087;SDS011;42965;52.846;6.614;2023-03-23T14:05:32;14.13;;;2.95;;
57087;SDS011;42965;52.846;6.614;2023-03-23T14:08:09;8.18;;;2.70;;
57087;SDS011;42965;52.846;6.614;2023-03-23T14:13:16;10.38;;;2.33;;
57087;SDS011;42965;52.846;6.614;2023-03-23T14:15:58;10.70;;;3.28;;
57087;SDS011;42965;52.846;6.614;2023-03-23T14:18:31;16.17;;;3.95;;
57087;SDS011;42965;52.846;6.614;2023-03-23T14:21:02;14.32;;;3.50;;
57087;SDS011;42965;52.846;6.614;2023-03-23T14:23:32;14.35;;;3.22;;
57087;SDS011;42965;52.846;6.614;2023-03-23T14:26:00;11.95;;;2.42;;
57087;SDS011;42965;52.846;6.614;2023-03-23T14:28:39;13.32;;;3.67;;
57087;SDS011;42965;52.846;6.614;2023-03-23T14:31:20;12.60;;;2.60;;
57087;SDS011;42965;52.846;6.614;2023-03-23T14:33:49;7.70;;;2.30;;
57087;SDS011;42965;52.846;6.614;2023-03-23T14:36:23;11.45;;;2.63;;
57087;SDS011;42965;52.846;6.614;2023-03-23T14:41:37;10.60;;;2.60;;
57087;SDS011;42965;52.846;6.614;2023-03-23T14:44:05;9.48;;;2.45;;
57087;SDS011;42965;52.846;6.614;2023-03-23T14:46:34;11.02;;;2.50;;
57087;SDS011;42965;52.846;6.614;2023-03-23T14:49:02;13.98;;;2.78;;
57087;SDS011;42965;52.846;6.614;2023-03-23T14:51:31;12.18;;;4.13;;
57087;SDS011;42965;52.846;6.614;2023-03-23T14:54:00;12.00;;;2.70;;
57087;SDS011;42965;52.846;6.614;2023-03-23T14:56:35;12.23;;;3.13;;
57087;SDS011;42965;52.846;6.614;2023-03-23T14:59:03;11.73;;;3.33;;
57087;SDS011;42965;52.846;6.614;2023-03-23T15:01:33;11.52;;;2.90;;
57087;SDS011;42965;52.846;6.614;2023-03-23T15:04:06;12.27;;;3.15;;
57087;SDS011;42965;52.846;6.614;2023-03-23T15:06:51;13.40;;;3.30;;
57087;SDS011;42965;52.846;6.614;2023-03-23T15:09:25;11.32;;;3.83;;
57087;SDS011;42965;52.846;6.614;2023-03-23T15:11:56;8.07;;;3.17;;
57087;SDS011;42965;52.846;6.614;2023-03-23T15:17:18;13.85;;;3.33;;
57087;SDS011;42965;52.846;6.614;2023-03-23T15:19:49;11.25;;;2.90;;
57087;SDS011;42965;52.846;6.614;2023-03-23T15:22:22;9.88;;;2.80;;
57087;SDS011;42965;52.846;6.614;2023-03-23T15:25:02;11.52;;;3.20;;
57087;SDS011;42965;52.846;6.614;2023-03-23T15:27:40;14.85;;;3.67;;
57087;SDS011;42965;52.846;6.614;2023-03-23T15:30:13;13.85;;;3.47;;
57087;SDS011;42965;52.846;6.614;2023-03-23T15:32:41;13.07;;;2.83;;
57087;SDS011;42965;52.846;6.614;2023-03-23T15:35:17;12.95;;;3.25;;
57087;SDS011;42965;52.846;6.614;2023-03-23T15:37:52;12.40;;;3.25;;
57087;SDS011;42965;52.846;6.614;2023-03-23T15:40:23;8.95;;;2.75;;
57087;SDS011;42965;52.846;6.614;2023-03-23T15:46:01;10.63;;;3.00;;
57087;SDS011;42965;52.846;6.614;2023-03-23T15:48:31;12.45;;;3.80;;
57087;SDS011;42965;52.846;6.614;2023-03-23T15:51:02;18.10;;;4.40;;
57087;SDS011;42965;52.846;6.614;2023-03-23T15:53:31;17.17;;;3.38;;
57087;SDS011;42965;52.846;6.614;2023-03-23T15:56:04;9.70;;;3.35;;
57087;SDS011;42965;52.846;6.614;2023-03-23T15:58:32;11.13;;;3.15;;
57087;SDS011;42965;52.846;6.614;2023-03-23T16:01:02;8.88;;;3.05;;
57087;SDS011;42965;52.846;6.614;2023-03-23T16:04:07;13.02;;;3.00;;
57087;SDS011;42965;52.846;6.614;2023-03-23T16:06:33;14.45;;;3.55;;
57087;SDS011;42965;52.846;6.614;2023-03-23T16:09:01;19.02;;;3.58;;
57087;SDS011;42965;52.846;6.614;2023-03-23T16:11:28;11.75;;;2.95;;
57087;SDS011;42965;52.846;6.614;2023-03-23T16:13:56;12.75;;;3.42;;
57087;SDS011;42965;52.846;6.614;2023-03-23T16:16:31;10.52;;;3.05;;
57087;SDS011;42965;52.846;6.614;2023-03-23T16:19:01;15.65;;;3.90;;
57087;SDS011;42965;52.846;6.614;2023-03-23T16:21:28;14.35;;;3.47;;
57087;SDS011;42965;52.846;6.614;2023-03-23T16:23:54;13.93;;;4.32;;
57087;SDS011;42965;52.846;6.614;2023-03-23T16:26:23;11.98;;;4.10;;
57087;SDS011;42965;52.846;6.614;2023-03-23T16:28:53;11.98;;;3.33;;
57087;SDS011;42965;52.846;6.614;2023-03-23T16:31:19;13.98;;;3.72;;
57087;SDS011;42965;52.846;6.614;2023-03-23T16:33:46;12.40;;;3.13;;
57087;SDS011;42965;52.846;6.614;2023-03-23T16:36:12;11.48;;;3.03;;
57087;SDS011;42965;52.846;6.614;2023-03-23T16:38:39;11.77;;;2.75;;
57087;SDS011;42965;52.846;6.614;2023-03-23T16:41:06;11.73;;;3.83;;
57087;SDS011;42965;52.846;6.614;2023-03-23T16:43:33;14.32;;;5.20;;
57087;SDS011;42965;52.846;6.614;2023-03-23T16:45:59;12.68;;;3.33;;
57087;SDS011;42965;52.846;6.614;2023-03-23T16:48:26;13.50;;;3.30;;
57087;SDS011;42965;52.846;6.614;2023-03-23T16:50:52;16.48;;;4.13;;
57087;SDS011;42965;52.846;6.614;2023-03-23T16:53:22;13.77;;;3.15;;
57087;SDS011;42965;52.846;6.614;2023-03-23T16:55:50;10.40;;;2.85;;
57087;SDS011;42965;52.846;6.614;2023-03-23T16:58:17;12.30;;;3.15;;
57087;SDS011;42965;52.846;6.614;2023-03-23T17:00:47;10.00;;;2.88;;
57087;SDS011;42965;52.846;6.614;2023-03-23T17:03:19;11.60;;;2.78;;
57087;SDS011;42965;52.846;6.614;2023-03-23T17:05:48;8.25;;;2.25;;
57087;SDS011;42965;52.846;6.614;2023-03-23T17:08:15;11.40;;;2.60;;
57087;SDS011;42965;52.846;6.614;2023-03-23T17:10:42;11.68;;;3.33;;
57087;SDS011;42965;52.846;6.614;2023-03-23T17:13:09;10.48;;;2.50;;
57087;SDS011;42965;52.846;6.614;2023-03-23T17:15:36;9.80;;;2.25;;
57087;SDS011;42965;52.846;6.614;2023-03-23T17:18:04;6.50;;;1.95;;
57087;SDS011;42965;52.846;6.614;2023-03-23T17:20:30;6.97;;;2.05;;